sensor_id;sensor_type;location;lat;lon;timestamp;temperature;humidity
3380;DHT22;1703;51.964;7.642;2022-12-18T00:00:12;-4.30;99.90
3380;DHT22;1703;51.964;7.642;2022-12-18T00:02:43;-4.30;99.90
3380;DHT22;1703;51.964;7.642;2022-12-18T00:05:09;-4.30;99.90
3380;DHT22;1703;51.964;7.642;2022-12-18T00:07:36;-4.40;99.90
3380;DHT22;1703;51.964;7.642;2022-12-18T00:10:05;-4.40;99.90
3380;DHT22;1703;51.964;7.642;2022-12-18T00:12:32;-4.40;99.90
3380;DHT22;1703;51.964;7.642;2022-12-18T00:14:58;-4.40;99.90
3380;DHT22;1703;51.964;7.642;2022-12-18T00:17:26;-4.40;99.90
3380;DHT22;1703;51.964;7.642;2022-12-18T00:19:53;-4.30;99.90
3380;DHT22;1703;51.964;7.642;2022-12-18T00:22:20;-4.20;99.90
3380;DHT22;1703;51.964;7.642;2022-12-18T00:24:47;-4.40;99.90
3380;DHT22;1703;51.964;7.642;2022-12-18T00:27:14;-4.50;99.90
3380;DHT22;1703;51.964;7.642;2022-12-18T00:29:40;-4.50;99.90
3380;DHT22;1703;51.964;7.642;2022-12-18T00:32:07;-4.60;99.90
3380;DHT22;1703;51.964;7.642;2022-12-18T00:34:35;-4.60;99.90
3380;DHT22;1703;51.964;7.642;2022-12-18T00:37:02;-4.60;99.90
3380;DHT22;1703;51.964;7.642;2022-12-18T00:39:29;-4.60;99.90
3380;DHT22;1703;51.964;7.642;2022-12-18T00:41:56;-4.50;99.90
3380;DHT22;1703;51.964;7.642;2022-12-18T00:44:40;-4.50;99.90
3380;DHT22;1703;51.964;7.642;2022-12-18T00:47:07;-4.50;99.90
3380;DHT22;1703;51.964;7.642;2022-12-18T00:49:35;-4.60;99.90
3380;DHT22;1703;51.964;7.642;2022-12-18T00:52:01;-4.70;99.90
3380;DHT22;1703;51.964;7.642;2022-12-18T00:54:28;-4.70;99.90
3380;DHT22;1703;51.964;7.642;2022-12-18T00:56:56;-4.80;99.90
3380;DHT22;1703;51.964;7.642;2022-12-18T00:59:22;-4.80;99.90
3380;DHT22;1703;51.964;7.642;2022-12-18T01:01:50;-4.80;99.90
3380;DHT22;1703;51.964;7.642;2022-12-18T01:04:16;-4.70;99.90
3380;DHT22;1703;51.964;7.642;2022-12-18T01:06:46;-4.70;99.90
3380;DHT22;1703;51.964;7.642;2022-12-18T01:09:12;-4.70;99.90
3380;DHT22;1703;51.964;7.642;2022-12-18T01:11:39;-4.70;99.90
3380;DHT22;1703;51.964;7.642;2022-12-18T01:14:06;-4.70;99.90
3380;DHT22;1703;51.964;7.642;2022-12-18T01:16:33;-4.70;99.90
3380;DHT22;1703;51.964;7.642;2022-12-18T01:19:00;-4.70;99.90
3380;DHT22;1703;51.964;7.642;2022-12-18T01:21:27;-4.70;99.90
3380;DHT22;1703;51.964;7.642;2022-12-18T01:23:56;-4.60;99.90
3380;DHT22;1703;51.964;7.642;2022-12-18T01:26:24;-4.60;99.90
3380;DHT22;1703;51.964;7.642;2022-12-18T01:28:51;-4.60;99.90
3380;DHT22;1703;51.964;7.642;2022-12-18T01:31:21;-4.60;99.90
3380;DHT22;1703;51.964;7.642;2022-12-18T01:33:49;-4.70;99.90
3380;DHT22;1703;51.964;7.642;2022-12-18T01:36:18;-4.70;99.90
3380;DHT22;1703;51.964;7.642;2022-12-18T01:38:45;-4.70;99.90
3380;DHT22;1703;51.964;7.642;2022-12-18T01:41:14;-4.80;99.90
3380;DHT22;1703;51.964;7.642;2022-12-18T01:43:48;-4.80;99.90
3380;DHT22;1703;51.964;7.642;2022-12-18T01:46:16;-4.80;99.90
3380;DHT22;1703;51.964;7.642;2022-12-18T01:48:45;-4.80;99.90
3380;DHT22;1703;51.964;7.642;2022-12-18T01:51:13;-4.80;99.90
3380;DHT22;1703;51.964;7.642;2022-12-18T01:53:41;-4.80;99.90
3380;DHT22;1703;51.964;7.642;2022-12-18T01:56:13;-4.80;99.90
3380;DHT22;1703;51.964;7.642;2022-12-18T01:58:48;-4.80;99.90
3380;DHT22;1703;51.964;7.642;2022-12-18T02:01:17;-4.80;99.90
3380;DHT22;1703;51.964;7.642;2022-12-18T02:03:44;-4.80;99.90
3380;DHT22;1703;51.964;7.642;2022-12-18T02:06:15;-4.60;99.90
3380;DHT22;1703;51.964;7.642;2022-12-18T02:08:51;-4.60;99.90
3380;DHT22;1703;51.964;7.642;2022-12-18T02:11:32;-4.60;99.90
3380;DHT22;1703;51.964;7.642;2022-12-18T02:14:17;-4.70;99.90
3380;DHT22;1703;51.964;7.642;2022-12-18T02:16:48;-4.80;99.90
3380;DHT22;1703;51.964;7.642;2022-12-18T02:19:35;-4.80;99.90
3380;DHT22;1703;51.964;7.642;2022-12-18T02:22:18;-4.80;99.90
3380;DHT22;1703;51.964;7.642;2022-12-18T02:24:59;-4.90;99.90
3380;DHT22;1703;51.964;7.642;2022-12-18T02:27:29;-4.80;99.90
3380;DHT22;1703;51.964;7.642;2022-12-18T02:29:59;-4.90;99.90
3380;DHT22;1703;51.964;7.642;2022-12-18T02:32:30;-4.90;99.90
3380;DHT22;1703;51.964;7.642;2022-12-18T02:34:59;-4.80;99.90
3380;DHT22;1703;51.964;7.642;2022-12-18T02:37:29;-4.80;99.90
3380;DHT22;1703;51.964;7.642;2022-12-18T02:40:00;-4.80;99.90
3380;DHT22;1703;51.964;7.642;2022-12-18T02:42:32;-4.80;99.90
3380;DHT22;1703;51.964;7.642;2022-12-18T02:45:00;-4.80;99.90
3380;DHT22;1703;51.964;7.642;2022-12-18T02:47:29;-4.80;99.90
3380;DHT22;1703;51.964;7.642;2022-12-18T02:50:02;-4.80;99.90
3380;DHT22;1703;51.964;7.642;2022-12-18T02:52:45;-4.80;99.90
3380;DHT22;1703;51.964;7.642;2022-12-18T02:55:27;-4.80;99.90
3380;DHT22;1703;51.964;7.642;2022-12-18T02:58:05;-4.70;99.90
3380;DHT22;1703;51.964;7.642;2022-12-18T03:00:40;-4.80;99.90
3380;DHT22;1703;51.964;7.642;2022-12-18T03:03:13;-4.80;99.90
3380;DHT22;1703;51.964;7.642;2022-12-18T03:05:44;-4.80;99.90
3380;DHT22;1703;51.964;7.642;2022-12-18T03:08:17;-4.80;99.90
3380;DHT22;1703;51.964;7.642;2022-12-18T03:10:50;-4.80;99.90
3380;DHT22;1703;51.964;7.642;2022-12-18T03:13:23;-4.80;99.90
3380;DHT22;1703;51.964;7.642;2022-12-18T03:15:57;-4.80;99.90
3380;DHT22;1703;51.964;7.642;2022-12-18T03:18:30;-4.80;99.90
3380;DHT22;1703;51.964;7.642;2022-12-18T03:20:59;-4.90;99.90
3380;DHT22;1703;51.964;7.642;2022-12-18T03:23:29;-4.80;99.90
3380;DHT22;1703;51.964;7.642;2022-12-18T03:26:01;-4.70;99.90
3380;DHT22;1703;51.964;7.642;2022-12-18T03:28:34;-4.70;99.90
3380;DHT22;1703;51.964;7.642;2022-12-18T03:31:05;-4.70;99.90
3380;DHT22;1703;51.964;7.642;2022-12-18T03:33:38;-4.70;99.90
3380;DHT22;1703;51.964;7.642;2022-12-18T03:36:06;-4.80;99.90
3380;DHT22;1703;51.964;7.642;2022-12-18T03:38:33;-4.80;99.90
3380;DHT22;1703;51.964;7.642;2022-12-18T03:41:04;-4.80;99.90
3380;DHT22;1703;51.964;7.642;2022-12-18T03:43:49;-4.70;99.90
3380;DHT22;1703;51.964;7.642;2022-12-18T03:46:24;-4.60;99.90
3380;DHT22;1703;51.964;7.642;2022-12-18T03:48:59;-4.50;99.90
3380;DHT22;1703;51.964;7.642;2022-12-18T03:51:30;-4.60;99.90
3380;DHT22;1703;51.964;7.642;2022-12-18T03:54:01;-4.60;99.90
3380;DHT22;1703;51.964;7.642;2022-12-18T03:56:35;-4.70;99.90
3380;DHT22;1703;51.964;7.642;2022-12-18T03:59:07;-4.70;99.90
3380;DHT22;1703;51.964;7.642;2022-12-18T04:01:39;-4.70;99.90
3380;DHT22;1703;51.964;7.642;2022-12-18T04:04:08;-4.70;99.90
3380;DHT22;1703;51.964;7.642;2022-12-18T04:06:38;-4.70;99.90
3380;DHT22;1703;51.964;7.642;2022-12-18T04:09:09;-4.70;99.90
3380;DHT22;1703;51.964;7.642;2022-12-18T04:11:40;-4.80;99.90
3380;DHT22;1703;51.964;7.642;2022-12-18T04:14:09;-4.80;99.90
3380;DHT22;1703;51.964;7.642;2022-12-18T04:16:36;-4.70;99.90
3380;DHT22;1703;51.964;7.642;2022-12-18T04:19:05;-4.70;99.90
3380;DHT22;1703;51.964;7.642;2022-12-18T04:21:38;-4.70;99.90
3380;DHT22;1703;51.964;7.642;2022-12-18T04:24:05;-4.70;99.90
3380;DHT22;1703;51.964;7.642;2022-12-18T04:26:35;-4.60;99.90
3380;DHT22;1703;51.964;7.642;2022-12-18T04:29:29;-4.50;99.90
3380;DHT22;1703;51.964;7.642;2022-12-18T04:31:56;-4.50;99.90
3380;DHT22;1703;51.964;7.642;2022-12-18T04:34:26;-4.50;99.90
3380;DHT22;1703;51.964;7.642;2022-12-18T04:36:53;-4.60;99.90
3380;DHT22;1703;51.964;7.642;2022-12-18T04:39:22;-4.70;99.90
3380;DHT22;1703;51.964;7.642;2022-12-18T04:41:52;-4.70;99.90
3380;DHT22;1703;51.964;7.642;2022-12-18T04:44:19;-4.70;99.90
3380;DHT22;1703;51.964;7.642;2022-12-18T04:46:47;-4.70;99.90
3380;DHT22;1703;51.964;7.642;2022-12-18T04:49:14;-4.70;99.90
3380;DHT22;1703;51.964;7.642;2022-12-18T04:51:40;-4.80;99.90
3380;DHT22;1703;51.964;7.642;2022-12-18T04:54:07;-4.70;99.90
3380;DHT22;1703;51.964;7.642;2022-12-18T04:56:34;-4.70;99.90
3380;DHT22;1703;51.964;7.642;2022-12-18T04:59:01;-4.60;99.90
3380;DHT22;1703;51.964;7.642;2022-12-18T05:01:28;-4.60;99.90
3380;DHT22;1703;51.964;7.642;2022-12-18T05:03:56;-4.70;99.90
3380;DHT22;1703;51.964;7.642;2022-12-18T05:06:23;-4.70;99.90
3380;DHT22;1703;51.964;7.642;2022-12-18T05:08:49;-4.80;99.90
3380;DHT22;1703;51.964;7.642;2022-12-18T05:11:16;-4.80;99.90
3380;DHT22;1703;51.964;7.642;2022-12-18T05:13:44;-4.80;99.90
3380;DHT22;1703;51.964;7.642;2022-12-18T05:16:11;-4.70;99.90
3380;DHT22;1703;51.964;7.642;2022-12-18T05:18:39;-4.70;99.90
3380;DHT22;1703;51.964;7.642;2022-12-18T05:21:07;-4.70;99.90
3380;DHT22;1703;51.964;7.642;2022-12-18T05:23:34;-4.70;99.90
3380;DHT22;1703;51.964;7.642;2022-12-18T05:26:03;-4.80;99.90
3380;DHT22;1703;51.964;7.642;2022-12-18T05:28:31;-4.70;99.90
3380;DHT22;1703;51.964;7.642;2022-12-18T05:31:01;-4.70;99.90
3380;DHT22;1703;51.964;7.642;2022-12-18T05:33:30;-4.70;99.90
3380;DHT22;1703;51.964;7.642;2022-12-18T05:35:59;-4.70;99.90
3380;DHT22;1703;51.964;7.642;2022-12-18T05:38:30;-4.60;99.90
3380;DHT22;1703;51.964;7.642;2022-12-18T05:40:57;-4.60;99.90
3380;DHT22;1703;51.964;7.642;2022-12-18T05:43:25;-4.70;99.90
3380;DHT22;1703;51.964;7.642;2022-12-18T05:45:52;-4.70;99.90
3380;DHT22;1703;51.964;7.642;2022-12-18T05:48:20;-4.70;99.90
3380;DHT22;1703;51.964;7.642;2022-12-18T05:50:48;-4.70;99.90
3380;DHT22;1703;51.964;7.642;2022-12-18T05:53:17;-4.70;99.90
3380;DHT22;1703;51.964;7.642;2022-12-18T05:55:46;-4.60;99.90
3380;DHT22;1703;51.964;7.642;2022-12-18T05:58:14;-4.60;99.90
3380;DHT22;1703;51.964;7.642;2022-12-18T06:00:43;-4.60;99.90
3380;DHT22;1703;51.964;7.642;2022-12-18T06:03:11;-4.50;99.90
3380;DHT22;1703;51.964;7.642;2022-12-18T06:05:40;-4.50;99.90
3380;DHT22;1703;51.964;7.642;2022-12-18T06:08:07;-4.50;99.90
3380;DHT22;1703;51.964;7.642;2022-12-18T06:10:34;-4.50;99.90
3380;DHT22;1703;51.964;7.642;2022-12-18T06:13:03;-4.50;99.90
3380;DHT22;1703;51.964;7.642;2022-12-18T06:15:30;-4.50;99.90
3380;DHT22;1703;51.964;7.642;2022-12-18T06:17:57;-4.60;99.90
3380;DHT22;1703;51.964;7.642;2022-12-18T06:20:23;-4.70;99.90
3380;DHT22;1703;51.964;7.642;2022-12-18T06:22:50;-4.70;99.90
3380;DHT22;1703;51.964;7.642;2022-12-18T06:25:17;-4.70;99.90
3380;DHT22;1703;51.964;7.642;2022-12-18T06:27:46;-4.60;99.90
3380;DHT22;1703;51.964;7.642;2022-12-18T06:30:15;-4.60;99.90
3380;DHT22;1703;51.964;7.642;2022-12-18T06:32:41;-4.60;99.90
3380;DHT22;1703;51.964;7.642;2022-12-18T06:35:08;-4.70;99.90
3380;DHT22;1703;51.964;7.642;2022-12-18T06:37:35;-4.60;99.90
3380;DHT22;1703;51.964;7.642;2022-12-18T06:40:02;-4.60;99.90
3380;DHT22;1703;51.964;7.642;2022-12-18T06:42:30;-4.70;99.90
3380;DHT22;1703;51.964;7.642;2022-12-18T06:44:57;-4.70;99.90
3380;DHT22;1703;51.964;7.642;2022-12-18T06:47:25;-4.70;99.90
3380;DHT22;1703;51.964;7.642;2022-12-18T06:49:52;-4.70;99.90
3380;DHT22;1703;51.964;7.642;2022-12-18T06:52:19;-4.70;99.90
3380;DHT22;1703;51.964;7.642;2022-12-18T06:54:46;-4.70;99.90
3380;DHT22;1703;51.964;7.642;2022-12-18T06:57:12;-4.70;99.90
3380;DHT22;1703;51.964;7.642;2022-12-18T06:59:39;-4.70;99.90
3380;DHT22;1703;51.964;7.642;2022-12-18T07:02:06;-4.60;99.90
3380;DHT22;1703;51.964;7.642;2022-12-18T07:04:34;-4.60;99.90
3380;DHT22;1703;51.964;7.642;2022-12-18T07:07:01;-4.50;99.90
3380;DHT22;1703;51.964;7.642;2022-12-18T07:09:28;-4.50;99.90
3380;DHT22;1703;51.964;7.642;2022-12-18T07:11:54;-4.50;99.90
3380;DHT22;1703;51.964;7.642;2022-12-18T07:14:21;-4.50;99.90
3380;DHT22;1703;51.964;7.642;2022-12-18T07:16:48;-4.40;99.90
3380;DHT22;1703;51.964;7.642;2022-12-18T07:19:15;-4.60;99.90
3380;DHT22;1703;51.964;7.642;2022-12-18T07:21:43;-4.60;99.90
3380;DHT22;1703;51.964;7.642;2022-12-18T07:24:10;-4.60;99.90
3380;DHT22;1703;51.964;7.642;2022-12-18T07:26:37;-4.50;99.90
3380;DHT22;1703;51.964;7.642;2022-12-18T07:29:04;-4.40;99.90
3380;DHT22;1703;51.964;7.642;2022-12-18T07:31:30;-4.40;99.90
3380;DHT22;1703;51.964;7.642;2022-12-18T07:33:57;-4.40;99.90
3380;DHT22;1703;51.964;7.642;2022-12-18T07:36:24;-4.40;99.90
3380;DHT22;1703;51.964;7.642;2022-12-18T07:38:52;-4.40;99.90
3380;DHT22;1703;51.964;7.642;2022-12-18T07:41:19;-4.50;99.90
3380;DHT22;1703;51.964;7.642;2022-12-18T07:43:46;-4.50;99.90
3380;DHT22;1703;51.964;7.642;2022-12-18T07:46:14;-4.40;99.90
3380;DHT22;1703;51.964;7.642;2022-12-18T07:48:41;-4.40;99.90
3380;DHT22;1703;51.964;7.642;2022-12-18T07:51:12;-4.40;99.90
3380;DHT22;1703;51.964;7.642;2022-12-18T07:53:39;-4.40;99.90
3380;DHT22;1703;51.964;7.642;2022-12-18T07:56:09;-4.40;99.90
3380;DHT22;1703;51.964;7.642;2022-12-18T07:58:36;-4.40;99.90
3380;DHT22;1703;51.964;7.642;2022-12-18T08:01:04;-4.40;99.90
3380;DHT22;1703;51.964;7.642;2022-12-18T08:03:31;-4.50;99.90
3380;DHT22;1703;51.964;7.642;2022-12-18T08:05:59;-4.50;99.90
3380;DHT22;1703;51.964;7.642;2022-12-18T08:08:27;-4.50;99.90
3380;DHT22;1703;51.964;7.642;2022-12-18T08:10:54;-4.50;99.90
3380;DHT22;1703;51.964;7.642;2022-12-18T08:13:22;-4.50;99.90
3380;DHT22;1703;51.964;7.642;2022-12-18T08:15:55;-4.60;99.90
3380;DHT22;1703;51.964;7.642;2022-12-18T08:18:23;-4.50;99.90
3380;DHT22;1703;51.964;7.642;2022-12-18T08:20:50;-4.40;99.90
3380;DHT22;1703;51.964;7.642;2022-12-18T08:23:17;-4.40;99.90
3380;DHT22;1703;51.964;7.642;2022-12-18T08:25:43;-4.30;99.90
3380;DHT22;1703;51.964;7.642;2022-12-18T08:28:10;-4.30;99.90
3380;DHT22;1703;51.964;7.642;2022-12-18T08:30:38;-4.20;99.90
3380;DHT22;1703;51.964;7.642;2022-12-18T08:33:05;-4.10;99.90
3380;DHT22;1703;51.964;7.642;2022-12-18T08:35:35;-4.10;99.90
3380;DHT22;1703;51.964;7.642;2022-12-18T08:38:02;-3.90;99.90
3380;DHT22;1703;51.964;7.642;2022-12-18T08:40:29;-3.80;99.90
3380;DHT22;1703;51.964;7.642;2022-12-18T08:42:56;-3.90;99.90
3380;DHT22;1703;51.964;7.642;2022-12-18T08:45:41;-3.90;99.90
3380;DHT22;1703;51.964;7.642;2022-12-18T08:48:08;-3.90;99.90
3380;DHT22;1703;51.964;7.642;2022-12-18T08:50:35;-3.80;99.90
3380;DHT22;1703;51.964;7.642;2022-12-18T08:53:02;-3.70;99.90
3380;DHT22;1703;51.964;7.642;2022-12-18T08:55:29;-3.60;99.90
3380;DHT22;1703;51.964;7.642;2022-12-18T08:57:56;-3.50;99.90
3380;DHT22;1703;51.964;7.642;2022-12-18T09:00:22;-3.50;99.90
3380;DHT22;1703;51.964;7.642;2022-12-18T09:02:50;-3.50;99.90
3380;DHT22;1703;51.964;7.642;2022-12-18T09:05:17;-3.40;99.90
3380;DHT22;1703;51.964;7.642;2022-12-18T09:07:44;-3.40;99.90
3380;DHT22;1703;51.964;7.642;2022-12-18T09:10:18;-3.40;99.90
3380;DHT22;1703;51.964;7.642;2022-12-18T09:12:45;-3.40;99.90
3380;DHT22;1703;51.964;7.642;2022-12-18T09:15:12;-3.30;99.90
3380;DHT22;1703;51.964;7.642;2022-12-18T09:17:38;-3.30;99.90
3380;DHT22;1703;51.964;7.642;2022-12-18T09:20:08;-3.30;99.90
3380;DHT22;1703;51.964;7.642;2022-12-18T09:22:35;-3.20;99.90
3380;DHT22;1703;51.964;7.642;2022-12-18T09:25:01;-3.10;99.90
3380;DHT22;1703;51.964;7.642;2022-12-18T09:27:33;-3.10;99.90
3380;DHT22;1703;51.964;7.642;2022-12-18T09:30:01;-3.00;99.90
3380;DHT22;1703;51.964;7.642;2022-12-18T09:32:28;-3.00;99.90
3380;DHT22;1703;51.964;7.642;2022-12-18T09:34:54;-2.90;99.90
3380;DHT22;1703;51.964;7.642;2022-12-18T09:37:23;-2.80;99.90
3380;DHT22;1703;51.964;7.642;2022-12-18T09:39:49;-2.80;99.90
3380;DHT22;1703;51.964;7.642;2022-12-18T09:42:20;-2.70;99.90
3380;DHT22;1703;51.964;7.642;2022-12-18T09:44:50;-2.80;99.90
3380;DHT22;1703;51.964;7.642;2022-12-18T09:47:19;-2.70;99.90
3380;DHT22;1703;51.964;7.642;2022-12-18T09:49:48;-2.60;99.90
3380;DHT22;1703;51.964;7.642;2022-12-18T09:52:21;-2.50;99.90
3380;DHT22;1703;51.964;7.642;2022-12-18T09:54:53;-2.50;99.90
3380;DHT22;1703;51.964;7.642;2022-12-18T09:57:23;-2.40;99.90
3380;DHT22;1703;51.964;7.642;2022-12-18T09:59:55;-2.40;99.90
3380;DHT22;1703;51.964;7.642;2022-12-18T10:02:24;-2.30;99.90
3380;DHT22;1703;51.964;7.642;2022-12-18T10:05:01;-2.30;99.90
3380;DHT22;1703;51.964;7.642;2022-12-18T10:07:36;-2.30;99.90
3380;DHT22;1703;51.964;7.642;2022-12-18T10:10:14;-2.10;99.90
3380;DHT22;1703;51.964;7.642;2022-12-18T10:12:51;-2.00;99.90
3380;DHT22;1703;51.964;7.642;2022-12-18T10:15:24;-2.00;99.90
3380;DHT22;1703;51.964;7.642;2022-12-18T10:17:58;-1.90;99.90
3380;DHT22;1703;51.964;7.642;2022-12-18T10:20:33;-1.90;99.90
3380;DHT22;1703;51.964;7.642;2022-12-18T10:23:05;-1.80;99.90
3380;DHT22;1703;51.964;7.642;2022-12-18T10:25:41;-1.70;99.90
3380;DHT22;1703;51.964;7.642;2022-12-18T10:28:13;-1.70;99.90
3380;DHT22;1703;51.964;7.642;2022-12-18T10:30:42;-1.60;99.90
3380;DHT22;1703;51.964;7.642;2022-12-18T10:33:10;-1.50;99.90
3380;DHT22;1703;51.964;7.642;2022-12-18T10:35:41;-1.40;99.90
3380;DHT22;1703;51.964;7.642;2022-12-18T10:38:21;-1.40;99.90
3380;DHT22;1703;51.964;7.642;2022-12-18T10:40:51;-1.40;99.90
3380;DHT22;1703;51.964;7.642;2022-12-18T10:43:24;-1.30;99.90
3380;DHT22;1703;51.964;7.642;2022-12-18T10:46:12;-1.20;99.90
3380;DHT22;1703;51.964;7.642;2022-12-18T10:48:52;-1.20;99.90
3380;DHT22;1703;51.964;7.642;2022-12-18T10:51:22;-1.10;99.90
3380;DHT22;1703;51.964;7.642;2022-12-18T10:53:54;-1.10;99.90
3380;DHT22;1703;51.964;7.642;2022-12-18T10:56:24;-1.00;99.90
3380;DHT22;1703;51.964;7.642;2022-12-18T10:58:57;-1.00;99.90
3380;DHT22;1703;51.964;7.642;2022-12-18T11:01:24;-1.00;99.90
3380;DHT22;1703;51.964;7.642;2022-12-18T11:04:00;-0.90;99.90
3380;DHT22;1703;51.964;7.642;2022-12-18T11:06:28;-0.90;99.90
3380;DHT22;1703;51.964;7.642;2022-12-18T11:08:59;-0.80;99.90
3380;DHT22;1703;51.964;7.642;2022-12-18T11:11:28;-0.70;99.90
3380;DHT22;1703;51.964;7.642;2022-12-18T11:14:00;-0.70;99.90
3380;DHT22;1703;51.964;7.642;2022-12-18T11:16:28;-0.70;99.90
3380;DHT22;1703;51.964;7.642;2022-12-18T11:19:11;-0.60;99.90
3380;DHT22;1703;51.964;7.642;2022-12-18T11:21:40;-0.50;99.90
3380;DHT22;1703;51.964;7.642;2022-12-18T11:24:19;-0.50;99.90
3380;DHT22;1703;51.964;7.642;2022-12-18T11:26:48;-0.50;99.90
3380;DHT22;1703;51.964;7.642;2022-12-18T11:29:17;-0.40;99.90
3380;DHT22;1703;51.964;7.642;2022-12-18T11:31:44;-0.40;99.90
3380;DHT22;1703;51.964;7.642;2022-12-18T11:34:13;-0.40;99.90
3380;DHT22;1703;51.964;7.642;2022-12-18T11:36:43;-0.30;99.90
3380;DHT22;1703;51.964;7.642;2022-12-18T11:39:17;-0.30;99.90
3380;DHT22;1703;51.964;7.642;2022-12-18T11:41:50;-0.30;99.90
3380;DHT22;1703;51.964;7.642;2022-12-18T11:44:42;-0.20;99.90
3380;DHT22;1703;51.964;7.642;2022-12-18T11:47:19;-0.10;99.90
3380;DHT22;1703;51.964;7.642;2022-12-18T11:49:49;-0.10;99.90
3380;DHT22;1703;51.964;7.642;2022-12-18T11:52:18;0.00;99.90
3380;DHT22;1703;51.964;7.642;2022-12-18T11:54:47;0.00;99.90
3380;DHT22;1703;51.964;7.642;2022-12-18T11:57:25;0.00;99.90
3380;DHT22;1703;51.964;7.642;2022-12-18T11:59:57;0.10;99.90
3380;DHT22;1703;51.964;7.642;2022-12-18T12:02:38;0.10;99.90
3380;DHT22;1703;51.964;7.642;2022-12-18T12:05:20;0.10;99.90
3380;DHT22;1703;51.964;7.642;2022-12-18T12:07:55;0.20;99.90
3380;DHT22;1703;51.964;7.642;2022-12-18T12:10:32;0.20;99.90
3380;DHT22;1703;51.964;7.642;2022-12-18T12:13:21;0.30;99.90
3380;DHT22;1703;51.964;7.642;2022-12-18T12:15:58;0.20;99.90
3380;DHT22;1703;51.964;7.642;2022-12-18T12:18:36;0.20;99.90
3380;DHT22;1703;51.964;7.642;2022-12-18T12:21:14;0.30;99.90
3380;DHT22;1703;51.964;7.642;2022-12-18T12:23:49;0.30;99.90
3380;DHT22;1703;51.964;7.642;2022-12-18T12:26:24;0.30;99.90
3380;DHT22;1703;51.964;7.642;2022-12-18T12:29:10;0.40;99.90
3380;DHT22;1703;51.964;7.642;2022-12-18T12:31:51;0.40;99.90
3380;DHT22;1703;51.964;7.642;2022-12-18T12:34:23;0.50;99.90
3380;DHT22;1703;51.964;7.642;2022-12-18T12:37:08;0.50;99.90
3380;DHT22;1703;51.964;7.642;2022-12-18T12:39:40;0.50;99.90
3380;DHT22;1703;51.964;7.642;2022-12-18T12:42:13;0.50;99.90
3380;DHT22;1703;51.964;7.642;2022-12-18T12:45:03;0.60;99.90
3380;DHT22;1703;51.964;7.642;2022-12-18T12:47:33;0.60;99.90
3380;DHT22;1703;51.964;7.642;2022-12-18T12:50:06;0.60;99.90
3380;DHT22;1703;51.964;7.642;2022-12-18T12:52:42;0.50;99.90
3380;DHT22;1703;51.964;7.642;2022-12-18T12:55:15;0.50;99.90
3380;DHT22;1703;51.964;7.642;2022-12-18T12:57:46;0.50;99.90
3380;DHT22;1703;51.964;7.642;2022-12-18T13:00:18;0.50;99.90
3380;DHT22;1703;51.964;7.642;2022-12-18T13:02:50;0.60;99.90
3380;DHT22;1703;51.964;7.642;2022-12-18T13:05:22;0.60;99.90
3380;DHT22;1703;51.964;7.642;2022-12-18T13:07:54;0.60;99.90
3380;DHT22;1703;51.964;7.642;2022-12-18T13:10:31;0.70;99.90
3380;DHT22;1703;51.964;7.642;2022-12-18T13:13:00;0.60;99.90
3380;DHT22;1703;51.964;7.642;2022-12-18T13:15:32;0.70;99.90
3380;DHT22;1703;51.964;7.642;2022-12-18T13:18:14;0.80;99.90
3380;DHT22;1703;51.964;7.642;2022-12-18T13:20:43;0.70;99.90
3380;DHT22;1703;51.964;7.642;2022-12-18T13:23:30;0.70;99.90
3380;DHT22;1703;51.964;7.642;2022-12-18T13:25:58;0.70;99.90
3380;DHT22;1703;51.964;7.642;2022-12-18T13:28:50;0.70;99.90
3380;DHT22;1703;51.964;7.642;2022-12-18T13:34:30;0.70;99.90
3380;DHT22;1703;51.964;7.642;2022-12-18T13:40:05;0.80;99.90
3380;DHT22;1703;51.964;7.642;2022-12-18T13:42:51;0.80;99.90
3380;DHT22;1703;51.964;7.642;2022-12-18T13:45:42;0.80;99.90
3380;DHT22;1703;51.964;7.642;2022-12-18T13:48:29;0.80;99.90
3380;DHT22;1703;51.964;7.642;2022-12-18T13:51:04;0.80;99.90
3380;DHT22;1703;51.964;7.642;2022-12-18T13:53:35;0.70;99.90
3380;DHT22;1703;51.964;7.642;2022-12-18T13:56:03;0.80;99.90
3380;DHT22;1703;51.964;7.642;2022-12-18T13:58:30;0.80;99.90
3380;DHT22;1703;51.964;7.642;2022-12-18T14:00:57;0.80;99.90
3380;DHT22;1703;51.964;7.642;2022-12-18T14:03:26;0.80;99.90
3380;DHT22;1703;51.964;7.642;2022-12-18T14:05:56;0.70;99.90
3380;DHT22;1703;51.964;7.642;2022-12-18T14:08:29;0.70;99.90
3380;DHT22;1703;51.964;7.642;2022-12-18T14:10:59;0.70;99.90
3380;DHT22;1703;51.964;7.642;2022-12-18T14:13:29;0.70;99.90
3380;DHT22;1703;51.964;7.642;2022-12-18T14:15:56;0.80;99.90
3380;DHT22;1703;51.964;7.642;2022-12-18T14:18:28;0.80;99.90
3380;DHT22;1703;51.964;7.642;2022-12-18T14:20:59;0.80;99.90
3380;DHT22;1703;51.964;7.642;2022-12-18T14:23:31;0.80;99.90
3380;DHT22;1703;51.964;7.642;2022-12-18T14:25:58;0.80;99.90
3380;DHT22;1703;51.964;7.642;2022-12-18T14:28:25;0.80;99.90
3380;DHT22;1703;51.964;7.642;2022-12-18T14:30:53;0.80;99.90
3380;DHT22;1703;51.964;7.642;2022-12-18T14:33:21;0.80;99.90
3380;DHT22;1703;51.964;7.642;2022-12-18T14:35:55;0.80;99.90
3380;DHT22;1703;51.964;7.642;2022-12-18T14:38:26;0.80;99.90
3380;DHT22;1703;51.964;7.642;2022-12-18T14:40:56;0.80;99.90
3380;DHT22;1703;51.964;7.642;2022-12-18T14:43:23;0.80;99.90
3380;DHT22;1703;51.964;7.642;2022-12-18T14:45:50;0.80;99.90
3380;DHT22;1703;51.964;7.642;2022-12-18T14:48:19;0.80;99.90
3380;DHT22;1703;51.964;7.642;2022-12-18T14:50:55;0.80;99.90
3380;DHT22;1703;51.964;7.642;2022-12-18T14:53:28;0.70;99.90
3380;DHT22;1703;51.964;7.642;2022-12-18T14:56:00;0.80;99.90
3380;DHT22;1703;51.964;7.642;2022-12-18T14:58:27;0.80;99.90
3380;DHT22;1703;51.964;7.642;2022-12-18T15:00:54;0.80;99.90
3380;DHT22;1703;51.964;7.642;2022-12-18T15:03:21;0.80;99.90
3380;DHT22;1703;51.964;7.642;2022-12-18T15:05:48;0.80;99.90
3380;DHT22;1703;51.964;7.642;2022-12-18T15:08:30;0.80;99.90
3380;DHT22;1703;51.964;7.642;2022-12-18T15:10:59;0.80;99.90
3380;DHT22;1703;51.964;7.642;2022-12-18T15:13:25;0.80;99.90
3380;DHT22;1703;51.964;7.642;2022-12-18T15:15:53;0.80;99.90
3380;DHT22;1703;51.964;7.642;2022-12-18T15:18:25;0.80;99.90
3380;DHT22;1703;51.964;7.642;2022-12-18T15:20:55;0.70;99.90
3380;DHT22;1703;51.964;7.642;2022-12-18T15:23:24;0.80;99.90
3380;DHT22;1703;51.964;7.642;2022-12-18T15:25:56;0.80;99.90
3380;DHT22;1703;51.964;7.642;2022-12-18T15:28:26;0.80;99.90
3380;DHT22;1703;51.964;7.642;2022-12-18T15:31:02;0.80;99.90
3380;DHT22;1703;51.964;7.642;2022-12-18T15:33:32;0.80;99.90
3380;DHT22;1703;51.964;7.642;2022-12-18T15:36:00;0.80;99.90
3380;DHT22;1703;51.964;7.642;2022-12-18T15:38:27;0.80;99.90
3380;DHT22;1703;51.964;7.642;2022-12-18T15:40:54;0.90;99.90
3380;DHT22;1703;51.964;7.642;2022-12-18T15:43:22;0.90;99.90
3380;DHT22;1703;51.964;7.642;2022-12-18T15:46:05;0.90;99.90
3380;DHT22;1703;51.964;7.642;2022-12-18T15:48:33;0.90;99.90
3380;DHT22;1703;51.964;7.642;2022-12-18T15:51:01;0.90;99.90
3380;DHT22;1703;51.964;7.642;2022-12-18T15:53:30;1.00;99.90
3380;DHT22;1703;51.964;7.642;2022-12-18T15:55:58;1.00;99.90
3380;DHT22;1703;51.964;7.642;2022-12-18T15:58:43;1.00;99.90
3380;DHT22;1703;51.964;7.642;2022-12-18T16:01:11;1.10;99.90
3380;DHT22;1703;51.964;7.642;2022-12-18T16:03:38;1.10;99.90
3380;DHT22;1703;51.964;7.642;2022-12-18T16:06:05;1.00;99.90
3380;DHT22;1703;51.964;7.642;2022-12-18T16:08:32;1.00;99.90
3380;DHT22;1703;51.964;7.642;2022-12-18T16:11:00;0.90;99.90
3380;DHT22;1703;51.964;7.642;2022-12-18T16:13:27;0.90;99.90
3380;DHT22;1703;51.964;7.642;2022-12-18T16:15:54;1.00;99.90
3380;DHT22;1703;51.964;7.642;2022-12-18T16:18:22;1.00;99.90
3380;DHT22;1703;51.964;7.642;2022-12-18T16:20:49;1.00;99.90
3380;DHT22;1703;51.964;7.642;2022-12-18T16:23:17;1.10;99.90
3380;DHT22;1703;51.964;7.642;2022-12-18T16:25:44;1.20;99.90
3380;DHT22;1703;51.964;7.642;2022-12-18T16:28:11;1.10;99.90
3380;DHT22;1703;51.964;7.642;2022-12-18T16:30:38;1.20;99.90
3380;DHT22;1703;51.964;7.642;2022-12-18T16:33:05;1.10;99.90